Eagle Mountain, UT

10:19 AM MDT on October 23, 2014 (GMT -0600)
400 N | Change Station
CLOSE
Current Station
Personal Weather Station
Location: Lehi, UT
Elevation: 4570 ft
Nearby Weather Stations

Elev 4570 ft 40.39 °N, 111.84 °W | Updated 6 seconds ago

Partly Cloudy
Partly Cloudy
54.1 °F
Feels Like 54.1 °F
N
3.1
Wind Variable Wind from South
Gusts 7.6 mph

Today
High -- | Low -- °F
--% Chance of Precip.
Yesterday
High -- | Low -- °F
Precip. -- in
7:47 AM 6:35 PM
Waning Crescent, 0% visible
Pressure 30.21 in
Visibility 10.0 miles
Clouds Scattered Clouds 12000 ft
Dew Point 36 °F
Humidity 51%
Rainfall 0.00 in
Snow Depth 2 in , 1 in , 0 in
UV 1 out of 12
Pollen 1.80 out of 12
Air Quality Not available.
Flu Activity Sporadic
METAR KPVU 231555Z 12005KT 10SM SCT120 10/01 A3021

More Conditions Fewer Conditions

Pressure 30.21 in
Visibility 10.0 miles
Clouds Scattered Clouds 12000 ft
Dew Point 36 °F
Humidity 51%
Rainfall 0.00 in
Snow Depth 2 in , 1 in , 0 in
UV 1 out of 12
Pollen 1.80 out of 12
Air Quality Not available.
Flu Activity Sporadic
METAR KPVU 231555Z 12005KT 10SM SCT120 10/01 A3021

More Conditions Fewer Conditions

10-Day Weather Forecast

Almanac

Astronomy

Oct. 23, 2014 Rise Set
Actual Time 7:47 AM MDT 6:35 PM MDT
Civil Twilight 7:19 AM MDT 7:03 PM MDT
Nautical Twilight 6:47 AM MDT 7:35 PM MDT
Astronomical Twilight 6:15 AM MDT 8:06 PM MDT
Moon 7:30 AM MDT 6:39 PM MDT
Length of Visible Light 11h 44m
Length of Day
10h 48m
Tomorrow will be 2m 29s shorter.
Waning Crescent, 0% of the Moon is Illuminated
Today
Waning Crescent
Oct 23
New
Oct 30
First Quarter
Nov 6
Full
Nov 14
Last Quarter

Today's Extremes

State Highs State Lows

Community

WunderPhotos

Upload Photos

1,764,290 photos uploaded!

Nearby

Snow Depth

Station Depth Elevation
Cascade Mountain 2 in 7768 ft
Brighton 1 in 8750 ft
Rocky Basin-Settlement 0 in 8900 ft
Mill-d North 1 in 8960 ft
Thaynes Canyon 1 in 9200 ft

Earthquake Activity

City Distance Mag. Time & Date
Ferron, Utah 100 miles 2.5 10:53 PM MDT
2014-10-21
Minimum magnitude displayed is 2.5.

Coastal Water Temperatures

Place Temperature
No Stations Reporting

Nearby Weather Stations